TimeCDT,TemperatureF,Dew PointF,Humidity,Sea Level PressureIn,VisibilityMPH,Wind Direction,Wind SpeedMPH,Gust SpeedMPH,PrecipitationIn,Events,Conditions,WindDirDegrees,DateUTC
12:53 AM,39.9,25.0,55,29.99,10.0,Calm,Calm,-,N/A,,Clear,0,2012-10-02 05:53:00
1:53 AM,44.1,27.0,51,29.97,10.0,Calm,Calm,-,N/A,,Clear,0,2012-10-02 06:53:00
2:53 AM,42.1,28.9,60,29.95,10.0,SSE,6.9,-,N/A,,Clear,150,2012-10-02 07:53:00
4:53 AM,48.9,28.0,44,29.91,10.0,South,11.5,-,N/A,,Clear,190,2012-10-02 09:53:00
5:53 AM,51.1,28.0,41,29.88,10.0,South,17.3,23.0,N/A,,Clear,180,2012-10-02 10:53:00
6:53 AM,50.0,28.9,44,29.87,10.0,SSE,10.4,20.7,N/A,,Clear,150,2012-10-02 11:53:00
7:53 AM,51.1,30.0,44,29.84,10.0,South,17.3,23.0,N/A,,Clear,170,2012-10-02 12:53:00
8:53 AM,51.1,30.9,46,29.83,10.0,South,11.5,-,N/A,,Clear,170,2012-10-02 13:53:00
9:53 AM,57.0,32.0,39,29.81,10.0,SSE,11.5,-,N/A,,Clear,160,2012-10-02 14:53:00
10:53 AM,64.9,32.0,29,29.78,10.0,South,13.8,-,N/A,,Clear,170,2012-10-02 15:53:00
11:53 AM,70.0,32.0,25,29.75,10.0,South,13.8,-,N/A,,Clear,190,2012-10-02 16:53:00
12:53 PM,73.9,32.0,21,29.73,10.0,SSE,12.7,-,N/A,,Clear,160,2012-10-02 17:53:00
1:53 PM,80.1,33.1,18,29.69,10.0,South,11.5,-,N/A,,Clear,180,2012-10-02 18:53:00
2:53 PM,82.0,32.0,16,29.67,10.0,SW,8.1,-,N/A,,Clear,230,2012-10-02 19:53:00
3:53 PM,84.0,33.1,16,29.65,10.0,SW,5.8,-,N/A,,Clear,220,2012-10-02 20:53:00
4:53 PM,84.9,32.0,15,29.64,10.0,WNW,5.8,-,N/A,,Clear,300,2012-10-02 21:53:00
5:53 PM,84.9,32.0,15,29.64,10.0,NNW,4.6,-,N/A,,Clear,340,2012-10-02 22:53:00
7:53 PM,66.9,33.1,28,29.69,10.0,North,9.2,-,N/A,,Clear,360,2012-10-03 00:53:00
9:53 PM,57.0,32.0,39,29.72,10.0,ENE,9.2,-,N/A,,Clear,60,2012-10-03 02:53:00
10:53 PM,55.0,33.1,43,29.71,10.0,NE,11.5,-,N/A,,Clear,40,2012-10-03 03:53:00
11:53 PM,55.9,33.1,42,29.71,10.0,NE,5.8,-,N/A,,Clear,50,2012-10-03 04:53:00